Time;durP1;ratioP1;P1;durP2;ratioP2;P2;SDS_P1;SDS_P2;PMS_P1;PMS_P2;Temp;Humidity;BMP_temperature;BMP_pressure;BME280_temperature;BME280_humidity;BME280_pressure;Samples;Min_cycle;Max_cycle;Signal;HPM_P1;HPM_P2
2021/12/17 00:00:19;;;;;;;17.70;3.58;;;;;;;4.22;91.53;103515.94;5059993;28;20038;-53
2021/12/17 00:05:44;;;;;;;13.15;3.15;;;;;;;4.17;91.89;103522.66;5070385;28;20025;-52
2021/12/17 00:08:11;;;;;;;17.90;3.22;;;;;;;4.17;91.99;103520.00;5056477;28;20024;-55
2021/12/17 00:10:37;;;;;;;19.98;3.30;;;;;;;4.14;92.08;103513.16;5065382;28;20282;-54
2021/12/17 00:13:02;;;;;;;17.83;3.25;;;;;;;4.14;91.83;103517.63;5060807;28;20025;-55
2021/12/17 00:15:28;;;;;;;14.75;2.85;;;;;;;4.09;92.47;103523.31;5061907;28;20115;-54
2021/12/17 00:18:00;;;;;;;11.45;2.70;;;;;;;4.16;92.29;103534.25;5046165;28;20378;-54
2021/12/17 00:20:59;;;;;;;13.43;2.63;;;;;;;4.22;92.03;103531.03;5057253;28;20024;-53
2021/12/17 00:51:33;;;;;;;17.17;3.58;;;;;;;3.92;93.38;103546.03;5062451;28;20030;-53
2021/12/17 00:53:28;;;;;;;15.27;3.17;;;;;;;3.98;93.05;103546.50;5061307;28;20048;-54
2021/12/17 00:55:54;;;;;;;18.17;3.28;;;;;;;3.96;92.84;103545.81;5062129;28;20027;-54
2021/12/17 00:58:19;;;;;;;12.77;3.10;;;;;;;3.92;93.12;103540.75;5059006;28;20028;-52
2021/12/17 01:00:46;;;;;;;13.63;2.40;;;;;;;3.93;93.69;103541.56;5060369;28;20086;-56
2021/12/17 01:03:11;;;;;;;16.60;3.58;;;;;;;3.82;94.99;103542.53;5033005;28;20028;-53
2021/12/17 01:05:37;;;;;;;16.13;4.15;;;;;;;3.85;94.69;103536.97;5044370;28;20029;-53
2021/12/17 01:08:06;;;;;;;18.02;4.13;;;;;;;3.82;94.66;103547.84;5057858;28;20051;-53
2021/12/17 01:10:50;;;;;;;15.88;2.72;;;;;;;3.87;94.01;103553.56;5058817;28;20033;-51
2021/12/17 01:13:17;;;;;;;18.55;3.70;;;;;;;3.88;94.16;103557.06;5060966;28;20028;-53
2021/12/17 01:15:43;;;;;;;16.08;4.43;;;;;;;3.93;93.94;103550.38;5058553;28;20039;-54
2021/12/17 01:18:14;;;;;;;19.02;3.97;;;;;;;3.97;93.62;103550.13;5040702;28;20030;-56
2021/12/17 01:36:25;;;;;;;21.10;3.42;;;;;;;4.05;93.07;103568.84;5058506;28;20078;-55
2021/12/17 01:44:05;;;;;;;13.07;3.70;;;;;;;4.05;93.14;103569.69;5059327;28;20301;-53
2021/12/17 01:46:33;;;;;;;9.40;3.63;;;;;;;4.13;92.76;103569.84;5061863;28;20028;-53
2021/12/17 02:00:00;;;;;;;18.63;3.35;;;;;;;4.05;92.83;103561.72;5059391;28;20039;-56
2021/12/17 02:02:28;;;;;;;14.52;2.95;;;;;;;4.10;92.58;103563.97;5060745;28;20040;-54
2021/12/17 02:04:53;;;;;;;20.05;4.03;;;;;;;4.03;93.39;103554.88;5060775;28;20089;-50
2021/12/17 02:07:19;;;;;;;17.33;2.80;;;;;;;4.09;92.55;103546.38;5061655;28;20480;-53
2021/12/17 02:31:45;;;;;;;12.20;3.08;;;;;;;4.06;93.19;103544.00;5037128;28;20041;-52
2021/12/17 02:36:44;;;;;;;11.70;3.42;;;;;;;4.10;92.90;103534.78;5060544;28;20028;-53
2021/12/17 02:47:12;;;;;;;17.92;3.75;;;;;;;4.17;92.66;103546.53;5058086;28;20045;-53
2021/12/17 02:49:42;;;;;;;15.18;3.58;;;;;;;4.03;92.87;103538.97;5059009;28;20028;-53
2021/12/17 02:52:08;;;;;;;10.80;3.28;;;;;;;4.09;93.12;103541.91;5053406;28;20674;-52
2021/12/17 02:54:36;;;;;;;19.13;3.45;;;;;;;4.11;93.10;103541.75;5059419;28;20100;-53
2021/12/17 02:57:03;;;;;;;15.57;3.38;;;;;;;4.07;92.92;103543.84;5063915;28;20060;-54
2021/12/17 02:59:31;;;;;;;21.85;3.30;;;;;;;4.08;92.92;103547.34;5067926;28;20207;-53
2021/12/17 03:01:57;;;;;;;15.65;3.92;;;;;;;4.10;93.12;103556.00;5061332;28;20029;-56
2021/12/17 03:04:23;;;;;;;12.55;3.22;;;;;;;4.10;92.81;103543.56;5067992;28;20095;-54
2021/12/17 03:06:49;;;;;;;15.93;3.72;;;;;;;4.14;92.84;103536.19;5064765;28;20086;-54
2021/12/17 03:09:19;;;;;;;24.25;3.45;;;;;;;4.08;93.06;103537.56;5059699;28;20020;-54
2021/12/17 03:11:45;;;;;;;14.13;2.63;;;;;;;4.04;93.57;103540.63;5058694;28;20412;-53
2021/12/17 03:14:10;;;;;;;14.65;3.53;;;;;;;4.04;93.38;103553.91;5059036;28;20472;-54
2021/12/17 03:16:52;;;;;;;15.60;4.13;;;;;;;4.01;93.92;103540.91;5059023;28;20021;-51
2021/12/17 03:24:54;;;;;;;16.60;3.65;;;;;;;4.04;94.51;103532.69;5062477;28;20043;-54
2021/12/17 03:27:19;;;;;;;13.57;3.47;;;;;;;4.02;94.52;103534.63;5060889;28;20032;-52
2021/12/17 03:29:45;;;;;;;19.13;4.38;;;;;;;4.07;94.74;103538.53;5058888;28;20029;-54
2021/12/17 03:32:10;;;;;;;23.08;4.20;;;;;;;4.16;94.21;103540.38;5056912;28;20115;-54
2021/12/17 03:34:36;;;;;;;27.40;4.55;;;;;;;4.29;93.20;103549.88;5062251;28;20032;-54
2021/12/17 03:37:01;;;;;;;20.45;4.05;;;;;;;4.31;93.76;103546.13;5047245;28;20029;-54
2021/12/17 03:39:30;;;;;;;16.90;4.90;;;;;;;4.33;93.94;103557.47;5045389;28;20032;-53
2021/12/17 03:41:56;;;;;;;17.05;4.13;;;;;;;4.32;93.93;103550.47;5060193;28;20081;-52
2021/12/17 03:44:23;;;;;;;17.63;4.03;;;;;;;4.34;94.06;103545.03;5044298;28;20034;-53
2021/12/17 03:46:50;;;;;;;16.52;4.07;;;;;;;4.33;94.43;103544.19;5062696;28;20529;-54
2021/12/17 03:49:17;;;;;;;13.55;3.92;;;;;;;4.44;93.49;103545.84;5059965;28;20029;-51
2021/12/17 03:52:04;;;;;;;14.60;4.40;;;;;;;4.45;93.34;103561.63;5061890;28;20123;-57
2021/12/17 03:54:29;;;;;;;18.70;4.03;;;;;;;4.45;93.74;103556.31;5059422;28;20581;-53
2021/12/17 03:56:55;;;;;;;23.60;4.75;;;;;;;4.54;92.96;103549.34;5062646;28;20032;-55
2021/12/17 03:59:21;;;;;;;21.55;4.18;;;;;;;4.53;93.76;103548.53;5063370;28;20028;-54
2021/12/17 04:01:48;;;;;;;15.10;4.03;;;;;;;4.55;93.33;103545.72;5059051;28;20091;-55
2021/12/17 04:04:13;;;;;;;17.98;4.45;;;;;;;4.58;93.38;103549.91;5055423;28;20026;-54
2021/12/17 04:06:39;;;;;;;29.40;5.43;;;;;;;4.54;94.06;103549.34;5061908;28;20025;-54
2021/12/17 04:09:05;;;;;;;18.60;4.05;;;;;;;4.59;93.94;103549.78;5056497;28;20024;-56
2021/12/17 04:11:31;;;;;;;19.65;4.45;;;;;;;4.64;93.40;103538.72;5063949;28;20036;-52
2021/12/17 04:13:58;;;;;;;21.10;4.78;;;;;;;4.65;93.45;103537.72;5061385;28;20123;-55
2021/12/17 04:16:29;;;;;;;29.08;5.43;;;;;;;4.65;94.14;103545.69;5060540;28;20074;-53
2021/12/17 04:18:55;;;;;;;17.58;4.55;;;;;;;4.67;93.47;103547.25;5062894;28;20020;-53
2021/12/17 04:21:21;;;;;;;16.92;4.28;;;;;;;4.72;93.08;103541.53;5063321;28;20067;-53
2021/12/17 04:23:49;;;;;;;23.10;4.68;;;;;;;4.78;93.15;103547.09;5066608;28;20056;-55
2021/12/17 04:26:16;;;;;;;21.05;4.97;;;;;;;4.75;93.45;103531.44;5063444;28;20029;-54
2021/12/17 04:28:47;;;;;;;22.85;5.57;;;;;;;4.79;93.26;103537.31;5058305;28;20032;-54
2021/12/17 04:31:14;;;;;;;16.05;4.25;;;;;;;4.76;93.27;103542.91;5057709;28;20025;-52
2021/12/17 04:33:41;;;;;;;17.42;4.25;;;;;;;4.77;93.25;103541.94;5046472;28;20391;-55
2021/12/17 04:36:10;;;;;;;20.17;4.25;;;;;;;4.78;93.49;103544.44;5061567;28;20089;-51
2021/12/17 04:38:36;;;;;;;22.40;4.97;;;;;;;4.84;93.02;103545.69;5061815;28;20056;-52
2021/12/17 04:59:55;;;;;;;20.00;5.28;;;;;;;4.93;92.79;103560.78;5058313;28;20060;-52
2021/12/17 05:02:21;;;;;;;20.95;6.20;;;;;;;4.95;92.89;103563.31;5057697;28;20579;-53
2021/12/17 05:04:46;;;;;;;20.30;5.00;;;;;;;4.93;93.57;103566.09;5050353;28;20033;-52
2021/12/17 05:07:13;;;;;;;18.45;5.53;;;;;;;4.96;92.87;103559.66;5040985;28;20313;-53
2021/12/17 05:10:12;;;;;;;27.50;5.97;;;;;;;4.94;93.60;103551.84;5058228;28;20063;-53
2021/12/17 05:20:49;;;;;;;27.83;5.72;;;;;;;4.96;93.49;103565.81;5061185;28;20093;-55
2021/12/17 05:23:22;;;;;;;23.73;6.18;;;;;;;4.93;93.64;103560.78;5059550;28;20066;-53
2021/12/17 05:25:48;;;;;;;20.17;5.53;;;;;;;4.94;93.15;103557.16;5042219;28;20118;-53
2021/12/17 05:28:14;;;;;;;24.10;5.80;;;;;;;4.93;93.59;103567.91;5060965;28;20496;-54
2021/12/17 05:30:45;;;;;;;22.52;6.15;;;;;;;4.96;93.23;103559.66;5057099;28;20027;-51
2021/12/17 05:33:12;;;;;;;20.17;5.70;;;;;;;4.97;93.35;103556.84;5053810;28;20132;-54
2021/12/17 05:35:38;;;;;;;18.33;5.53;;;;;;;4.98;93.29;103558.53;5036101;28;20405;-54
2021/12/17 05:38:03;;;;;;;18.55;5.72;;;;;;;4.97;93.29;103556.03;5060676;28;20033;-55
2021/12/17 05:40:29;;;;;;;30.60;6.03;;;;;;;4.94;93.59;103570.44;5057952;28;20439;-55
2021/12/17 05:43:00;;;;;;;28.70;5.25;;;;;;;4.85;94.54;103564.16;5059143;28;20033;-54
2021/12/17 05:45:35;;;;;;;18.58;6.13;;;;;;;4.92;94.21;103575.06;5058627;28;20032;-51
2021/12/17 05:48:06;;;;;;;22.20;6.07;;;;;;;4.92;94.27;103572.41;5039580;28;20028;-54
2021/12/17 05:50:34;;;;;;;21.88;6.57;;;;;;;4.98;94.09;103579.78;5059775;28;20079;-53
2021/12/17 05:53:00;;;;;;;16.65;5.43;;;;;;;4.97;94.35;103580.78;5056678;28;20438;-53
2021/12/17 05:55:26;;;;;;;22.10;6.07;;;;;;;4.99;94.01;103591.25;5061976;28;20089;-53
2021/12/17 05:57:52;;;;;;;18.58;5.25;;;;;;;5.00;93.83;103588.47;5064986;28;21572;-53
2021/12/17 06:00:20;;;;;;;20.98;6.50;;;;;;;4.98;93.64;103585.09;5057581;28;20895;-52
2021/12/17 06:02:46;;;;;;;21.90;6.28;;;;;;;5.03;94.00;103577.56;5059436;28;20029;-52
2021/12/17 06:05:12;;;;;;;20.52;5.70;;;;;;;5.01;93.77;103583.97;5059817;28;20070;-53
2021/12/17 06:07:38;;;;;;;23.35;5.65;;;;;;;5.01;93.88;103591.94;5062571;28;20442;-53
2021/12/17 06:10:05;;;;;;;23.77;6.20;;;;;;;5.06;93.61;103592.38;5056274;28;20617;-53
2021/12/17 06:12:31;;;;;;;23.35;6.22;;;;;;;5.10;93.52;103597.25;5062008;28;20028;-51
2021/12/17 06:14:57;;;;;;;27.38;6.50;;;;;;;5.09;93.18;103586.78;5058589;28;20048;-54
2021/12/17 06:17:23;;;;;;;13.80;4.55;;;;;;;5.11;93.38;103590.97;5060107;28;20582;-54
2021/12/17 06:19:48;;;;;;;16.85;4.70;;;;;;;5.12;92.97;103589.16;5061723;28;20025;-54
2021/12/17 06:22:15;;;;;;;15.70;5.47;;;;;;;5.13;92.81;103593.47;5059698;28;20025;-53
2021/12/17 06:24:44;;;;;;;17.38;4.40;;;;;;;5.12;93.42;103600.63;5060785;28;20519;-53
2021/12/17 06:27:14;;;;;;;19.63;5.15;;;;;;;5.21;92.42;103601.59;5059850;28;20395;-53
2021/12/17 06:29:40;;;;;;;24.77;5.97;;;;;;;5.12;92.45;103603.28;5062566;28;20078;-54
2021/12/17 06:32:07;;;;;;;24.95;5.03;;;;;;;5.16;92.49;103609.97;5039868;28;20032;-53
2021/12/17 06:34:33;;;;;;;20.25;4.93;;;;;;;5.19;91.92;103606.19;5063772;28;20309;-52
2021/12/17 06:36:58;;;;;;;13.70;4.80;;;;;;;5.18;92.27;103601.84;5067161;28;20396;-54
2021/12/17 06:39:24;;;;;;;23.13;4.47;;;;;;;5.21;92.10;103601.59;5063032;28;20559;-53
2021/12/17 06:41:50;;;;;;;24.38;4.65;;;;;;;5.22;92.30;103589.16;5065940;28;20040;-53
2021/12/17 06:44:20;;;;;;;18.80;5.45;;;;;;;5.19;92.16;103581.44;5061302;28;20042;-54
2021/12/17 06:47:00;;;;;;;18.92;4.47;;;;;;;5.22;91.88;103597.13;5043828;28;20021;-52
2021/12/17 07:06:06;;;;;;;15.60;4.05;;;;;;;5.24;91.37;103593.34;5060703;28;20462;-52
2021/12/17 07:11:37;;;;;;;21.65;4.85;;;;;;;5.29;91.22;103584.91;4978014;28;20746;-53
2021/12/17 07:17:13;;;;;;;14.15;4.85;;;;;;;5.04;92.86;103592.53;5062260;28;20043;-52
2021/12/17 07:22:49;;;;;;;12.85;3.38;;;;;;;5.10;93.05;103583.97;5038155;28;20052;-49
2021/12/17 07:28:11;;;;;;;17.50;4.07;;;;;;;5.11;93.67;103583.00;5062686;28;20230;-52
2021/12/17 07:33:34;;;;;;;20.60;4.80;;;;;;;5.13;93.10;103573.06;5063073;28;21335;-52
2021/12/17 07:36:08;;;;;;;16.75;5.07;;;;;;;5.11;93.26;103580.34;5060890;28;20043;-53
2021/12/17 07:41:03;;;;;;;11.07;3.20;;;;;;;5.12;93.44;103591.81;5057611;28;20116;-53
2021/12/17 07:43:39;;;;;;;20.73;4.75;;;;;;;5.21;92.62;103584.81;5044885;28;20039;-52
2021/12/17 07:46:09;;;;;;;21.00;4.35;;;;;;;5.25;92.10;103600.31;5060650;28;20028;-51
2021/12/17 07:48:36;;;;;;;19.83;4.20;;;;;;;5.27;92.27;103589.53;5062165;28;20070;-50
2021/12/17 07:51:04;;;;;;;15.95;4.07;;;;;;;5.29;91.90;103588.41;5063153;28;20032;-52
2021/12/17 07:53:34;;;;;;;18.25;3.63;;;;;;;5.27;92.35;103597.53;5059640;28;20035;-53
2021/12/17 07:56:01;;;;;;;23.08;4.25;;;;;;;5.26;92.76;103602.00;5057323;28;20119;-52
2021/12/17 07:58:31;;;;;;;19.85;4.25;;;;;;;5.25;92.00;103602.16;5061075;28;20032;-50
2021/12/17 08:00:57;;;;;;;16.20;3.67;;;;;;;5.24;92.18;103603.13;5058820;28;20124;-51
2021/12/17 08:03:23;;;;;;;25.45;4.72;;;;;;;5.19;92.83;103613.31;5057844;28;20062;-52
2021/12/17 08:05:49;;;;;;;19.95;4.78;;;;;;;5.27;92.45;103616.13;5060933;28;20480;-52
2021/12/17 08:08:15;;;;;;;21.00;4.97;;;;;;;5.26;92.95;103614.44;5054555;28;20268;-51
2021/12/17 08:10:41;;;;;;;23.30;4.63;;;;;;;5.33;92.35;103621.69;5058982;28;20467;-53
2021/12/17 08:13:12;;;;;;;14.20;3.53;;;;;;;5.32;92.61;103619.19;5056629;28;20081;-49
2021/12/17 08:15:45;;;;;;;18.20;4.00;;;;;;;5.34;92.47;103611.91;5060703;28;20052;-50
2021/12/17 08:18:32;;;;;;;21.48;5.30;;;;;;;5.38;91.87;103630.06;5060510;28;20024;-52
2021/12/17 08:26:22;;;;;;;10.43;3.35;;;;;;;5.34;92.63;103633.19;5056945;28;20086;-52
2021/12/17 08:29:23;;;;;;;18.75;3.95;;;;;;;5.35;92.18;103630.38;5056876;28;20028;-53
2021/12/17 08:31:42;;;;;;;21.60;4.85;;;;;;;5.40;91.92;103635.28;5058721;28;20036;-51
2021/12/17 08:34:07;;;;;;;19.55;4.90;;;;;;;5.37;92.08;103627.56;5059585;28;20025;-53
2021/12/17 08:36:33;;;;;;;19.83;3.60;;;;;;;5.34;92.04;103626.03;5064073;28;20079;-52
2021/12/17 08:38:58;;;;;;;15.43;3.90;;;;;;;5.38;92.22;103618.59;5058353;28;20035;-52
2021/12/17 08:41:26;;;;;;;17.17;4.90;;;;;;;5.45;91.64;103625.03;5055201;28;20503;-52
2021/12/17 08:43:51;;;;;;;24.65;4.32;;;;;;;5.49;91.32;103629.09;5066384;28;20056;-52
2021/12/17 08:46:17;;;;;;;22.67;4.53;;;;;;;5.52;91.71;103630.63;5062880;28;20048;-51
2021/12/17 08:48:42;;;;;;;18.73;3.88;;;;;;;5.43;91.74;103635.00;5066046;28;20028;-52
2021/12/17 08:51:09;;;;;;;11.25;3.75;;;;;;;5.40;92.01;103636.13;5062478;28;20028;-53
2021/12/17 08:53:35;;;;;;;14.80;4.15;;;;;;;5.43;92.08;103633.16;5059950;28;20031;-52
2021/12/17 08:56:02;;;;;;;19.50;5.20;;;;;;;5.48;91.35;103632.72;5058254;28;20029;-50
2021/12/17 08:58:27;;;;;;;12.52;3.63;;;;;;;5.48;91.78;103635.38;5062690;28;20070;-51
2021/12/17 09:00:53;;;;;;;15.50;3.60;;;;;;;5.46;91.19;103646.16;5054275;28;20032;-49
2021/12/17 09:03:19;;;;;;;13.93;3.75;;;;;;;5.47;91.50;103645.19;5056677;28;20020;-52
2021/12/17 09:05:50;;;;;;;20.02;4.10;;;;;;;5.48;91.25;103640.72;5056050;28;20515;-52
2021/12/17 09:08:16;;;;;;;16.30;3.88;;;;;;;5.46;91.33;103629.38;5055044;28;20500;-50
2021/12/17 09:10:45;;;;;;;14.20;4.13;;;;;;;5.49;91.71;103630.91;5056003;28;20063;-52
2021/12/17 09:13:11;;;;;;;20.67;4.20;;;;;;;5.53;91.41;103633.13;5062492;28;20723;-53
2021/12/17 09:15:37;;;;;;;15.63;3.90;;;;;;;5.56;91.02;103635.50;5058792;28;20035;-52
2021/12/17 09:18:03;;;;;;;20.65;5.90;;;;;;;5.60;91.14;103630.75;5056294;28;20021;-52
2021/12/17 09:20:29;;;;;;;19.55;4.00;;;;;;;5.54;90.84;103633.97;5055582;28;20025;-52
2021/12/17 09:22:54;;;;;;;12.30;3.72;;;;;;;5.51;91.07;103634.25;5058246;28;20016;-53
2021/12/17 09:25:20;;;;;;;23.17;3.90;;;;;;;5.54;91.37;103637.47;5057341;28;20025;-52
2021/12/17 09:27:46;;;;;;;17.30;3.90;;;;;;;5.56;91.21;103640.81;5060650;28;20024;-52
2021/12/17 09:30:14;;;;;;;18.23;4.18;;;;;;;5.58;90.76;103638.03;5057743;28;20480;-51
2021/12/17 09:32:40;;;;;;;11.43;3.38;;;;;;;5.58;91.02;103640.69;5059795;28;20100;-52
2021/12/17 09:35:10;;;;;;;21.98;4.25;;;;;;;5.63;90.63;103647.25;5052401;28;20074;-53
2021/12/17 09:37:37;;;;;;;22.92;4.40;;;;;;;5.57;90.86;103655.81;5054242;28;20033;-49
2021/12/17 09:40:06;;;;;;;13.07;3.75;;;;;;;5.59;90.51;103650.34;5050791;28;20032;-52
2021/12/17 09:42:33;;;;;;;11.55;4.18;;;;;;;5.60;90.89;103654.69;5050252;28;20119;-52
2021/12/17 09:44:59;;;;;;;14.80;4.05;;;;;;;5.66;90.03;103641.63;5055477;28;20036;-52
2021/12/17 09:47:24;;;;;;;16.13;3.92;;;;;;;5.64;90.00;103650.75;5055037;28;20028;-52
2021/12/17 09:49:55;;;;;;;14.85;3.65;;;;;;;5.54;89.80;103642.78;5049658;28;20083;-53
2021/12/17 09:52:21;;;;;;;13.88;3.33;;;;;;;5.59;89.66;103640.53;5057106;28;20364;-51
2021/12/17 09:54:47;;;;;;;17.50;3.72;;;;;;;5.58;89.58;103648.69;5058543;28;20035;-51
2021/12/17 09:57:13;;;;;;;17.92;4.90;;;;;;;5.60;89.83;103647.53;5062105;28;20036;-49
2021/12/17 09:59:39;;;;;;;11.57;3.78;;;;;;;5.63;89.45;103647.25;5057961;28;20021;-53
2021/12/17 10:02:06;;;;;;;17.92;4.30;;;;;;;5.67;89.56;103647.78;5054421;28;20029;-52
2021/12/17 10:04:32;;;;;;;14.88;4.43;;;;;;;5.64;89.23;103642.78;5058638;28;20508;-53
2021/12/17 10:07:22;;;;;;;16.55;3.97;;;;;;;5.61;89.16;103651.03;5054670;28;20071;-52
2021/12/17 10:10:01;;;;;;;15.80;4.13;;;;;;;5.65;88.96;103652.44;5054134;28;20020;-52
2021/12/17 10:12:32;;;;;;;15.98;3.70;;;;;;;5.71;88.54;103643.84;5050636;28;20072;-50
2021/12/17 10:14:59;;;;;;;14.52;3.55;;;;;;;5.75;88.76;103646.09;5049316;28;20790;-52
2021/12/17 10:17:25;;;;;;;12.60;4.53;;;;;;;5.72;88.51;103649.03;5060990;28;20056;-53
2021/12/17 10:19:53;;;;;;;20.27;5.57;;;;;;;5.72;88.59;103643.69;5057097;28;20106;-53
2021/12/17 10:22:20;;;;;;;19.70;5.05;;;;;;;5.73;88.92;103640.06;5055856;28;20029;-53
2021/12/17 10:25:03;;;;;;;14.85;5.07;;;;;;;5.75;88.43;103648.75;5056235;28;20041;-52
2021/12/17 10:27:32;;;;;;;13.98;5.95;;;;;;;5.64;88.08;103640.09;5050175;28;20162;-50
2021/12/17 10:29:59;;;;;;;17.08;4.68;;;;;;;5.74;88.64;103631.13;5062302;28;20431;-53
2021/12/17 10:32:26;;;;;;;25.70;4.50;;;;;;;5.71;88.20;103638.53;5049602;28;20028;-52
2021/12/17 10:35:01;;;;;;;13.98;4.00;;;;;;;5.77;88.50;103635.31;5048967;28;20033;-52
2021/12/17 10:37:37;;;;;;;20.73;4.38;;;;;;;5.74;88.30;103643.56;5047269;28;20029;-52
2021/12/17 10:40:38;;;;;;;11.13;3.85;;;;;;;5.75;88.41;103654.09;5052418;28;20052;-53
2021/12/17 10:43:18;;;;;;;15.80;3.95;;;;;;;5.88;88.01;103655.56;5045317;28;20048;-52
2021/12/17 10:45:57;;;;;;;18.20;3.70;;;;;;;5.83;87.93;103649.84;5056076;28;20154;-50
2021/12/17 10:50:52;;;;;;;12.98;3.78;;;;;;;5.82;88.29;103656.16;5052660;28;20032;-51
2021/12/17 10:53:25;;;;;;;16.42;3.80;;;;;;;5.86;88.10;103654.88;5053538;28;20029;-53
2021/12/17 10:55:52;;;;;;;17.80;3.70;;;;;;;5.88;88.26;103652.91;5052178;28;20540;-53
2021/12/17 10:58:18;;;;;;;15.30;4.32;;;;;;;5.88;88.12;103660.88;5054042;28;20043;-53
2021/12/17 11:01:01;;;;;;;21.13;4.10;;;;;;;5.89;87.94;103657.22;5054321;28;20029;-50
2021/12/17 11:03:27;;;;;;;25.35;3.97;;;;;;;5.87;88.16;103664.53;5052064;28;20033;-52
2021/12/17 11:05:53;;;;;;;16.83;3.30;;;;;;;5.95;87.76;103672.66;5052962;28;20077;-53
2021/12/17 11:08:28;;;;;;;13.38;4.47;;;;;;;5.89;87.61;103671.38;5053811;28;20024;-53
2021/12/17 11:11:00;;;;;;;;;;;;;;;5.91;87.62;103668.59;5039810;28;20029;-53
2021/12/17 11:13:26;;;;;;;9.77;3.42;;;;;;;5.91;87.17;103668.59;5054797;28;20335;-51
2021/12/17 11:15:53;;;;;;;17.15;3.55;;;;;;;5.92;87.11;103670.28;5058789;28;20119;-50
2021/12/17 11:18:19;;;;;;;15.10;3.63;;;;;;;5.86;87.54;103670.84;5059752;28;20456;-51
2021/12/17 11:20:45;;;;;;;18.90;4.57;;;;;;;5.81;86.94;103663.28;5062161;28;20249;-53
2021/12/17 11:23:14;;;;;;;17.98;3.90;;;;;;;5.86;87.35;103671.66;5061517;28;20032;-53
2021/12/17 11:25:47;;;;;;;15.02;3.47;;;;;;;5.91;87.05;103681.91;5060517;28;20035;-51
2021/12/17 11:28:13;;;;;;;20.88;4.82;;;;;;;5.83;86.54;103673.78;5058751;28;20502;-53
2021/12/17 11:30:42;;;;;;;20.73;5.30;;;;;;;5.78;86.69;103660.09;5057195;28;20051;-49
2021/12/17 11:33:08;;;;;;;13.95;3.33;;;;;;;5.74;86.62;103651.53;5055256;28;20439;-52
2021/12/17 11:35:37;;;;;;;17.33;3.83;;;;;;;5.70;86.80;103645.69;5062795;28;20031;-52
2021/12/17 11:38:10;;;;;;;16.77;3.20;;;;;;;5.79;86.46;103645.81;5065386;28;20029;-54
2021/12/17 11:40:52;;;;;;;20.95;4.57;;;;;;;5.80;86.74;103644.81;5057547;28;20021;-53
2021/12/17 11:43:51;;;;;;;15.90;3.22;;;;;;;5.83;86.59;103636.53;5054425;28;20028;-53
2021/12/17 11:46:23;;;;;;;15.23;3.03;;;;;;;5.87;86.34;103637.91;5066505;28;20514;-52
2021/12/17 11:48:54;;;;;;;14.82;3.25;;;;;;;5.90;86.37;103637.66;5056886;28;20361;-50
2021/12/17 11:51:24;;;;;;;13.55;3.70;;;;;;;5.88;86.22;103626.28;5054972;28;20484;-52
2021/12/17 11:53:52;;;;;;;19.85;3.90;;;;;;;5.90;86.20;103629.66;5060729;28;20085;-52
2021/12/17 11:56:39;;;;;;;11.65;3.03;;;;;;;5.91;86.15;103640.16;5063261;28;20024;-53
2021/12/17 11:59:05;;;;;;;13.80;3.30;;;;;;;5.86;86.40;103638.91;5059232;28;20021;-53
2021/12/17 12:02:11;;;;;;;17.77;3.90;;;;;;;5.85;86.02;103647.88;5058348;28;20524;-53
2021/12/17 12:04:36;;;;;;;17.17;3.72;;;;;;;5.99;85.83;103658.09;5055545;28;20131;-53
2021/12/17 12:07:14;;;;;;;13.48;3.33;;;;;;;5.96;85.49;103653.06;5063472;28;20103;-53
2021/12/17 12:09:57;;;;;;;17.33;4.55;;;;;;;5.93;85.29;103653.34;5063013;28;20036;-51
2021/12/17 12:12:24;;;;;;;10.18;3.40;;;;;;;5.89;85.25;103638.59;5065588;28;20135;-53
2021/12/17 12:14:50;;;;;;;13.02;3.80;;;;;;;5.84;85.45;103647.03;5058237;28;20033;-51
2021/12/17 12:17:53;;;;;;;10.88;2.97;;;;;;;5.84;85.65;103646.19;5062549;28;20377;-52
2021/12/17 12:20:40;;;;;;;13.00;2.90;;;;;;;5.79;85.86;103656.44;5060346;28;20032;-52
2021/12/17 12:23:40;;;;;;;13.93;3.15;;;;;;;5.79;86.38;103657.28;5058417;28;20025;-50
2021/12/17 12:26:08;;;;;;;9.73;3.20;;;;;;;5.87;86.17;103659.22;5054527;28;20051;-51
2021/12/17 12:28:46;;;;;;;14.32;3.50;;;;;;;5.89;85.87;103670.53;5064493;28;20416;-49
2021/12/17 12:31:13;;;;;;;11.43;3.50;;;;;;;5.83;85.96;103661.31;5063309;28;20115;-52
2021/12/17 12:34:00;;;;;;;11.80;3.55;;;;;;;5.87;85.79;103660.03;5058247;28;20035;-53
2021/12/17 12:36:58;;;;;;;11.63;3.10;;;;;;;5.84;85.83;103654.19;5057670;28;20032;-54
2021/12/17 12:39:38;;;;;;;11.23;2.95;;;;;;;5.87;85.84;103659.22;5066644;28;20119;-52
2021/12/17 12:42:11;;;;;;;12.23;3.47;;;;;;;5.80;85.45;103661.63;5042760;28;20033;-52
2021/12/17 12:44:39;;;;;;;14.32;4.25;;;;;;;5.75;85.07;103663.88;5053971;28;21193;-53
2021/12/17 12:47:06;;;;;;;17.02;3.50;;;;;;;5.78;85.73;103666.25;5059773;28;20108;-53
2021/12/17 12:49:59;;;;;;;10.27;3.15;;;;;;;5.73;85.79;103671.97;5060269;28;20024;-53
2021/12/17 12:52:43;;;;;;;12.70;4.13;;;;;;;5.75;85.21;103675.38;5057380;28;20017;-52
2021/12/17 12:55:26;;;;;;;9.30;3.03;;;;;;;5.74;85.85;103671.03;5075128;28;20048;-53
2021/12/17 12:57:55;;;;;;;15.35;3.60;;;;;;;5.70;85.97;103674.94;5056293;28;20087;-54
2021/12/17 13:00:27;;;;;;;10.13;3.53;;;;;;;5.65;85.57;103677.19;5062963;28;20036;-54
2021/12/17 13:02:59;;;;;;;8.90;2.78;;;;;;;5.63;85.59;103665.03;5059076;28;20622;-52
2021/12/17 13:05:25;;;;;;;10.23;3.38;;;;;;;5.68;85.82;103660.94;5059121;28;20028;-53
2021/12/17 13:07:54;;;;;;;14.68;3.83;;;;;;;5.64;85.51;103662.22;5059657;28;20274;-53
2021/12/17 13:10:49;;;;;;;8.63;2.53;;;;;;;5.72;85.69;103665.00;5059380;28;20753;-53
2021/12/17 13:24:12;;;;;;;11.70;3.38;;;;;;;5.80;85.05;103680.25;5055458;28;20408;-54
2021/12/17 13:26:49;;;;;;;9.35;3.20;;;;;;;5.81;84.65;103681.09;5054082;28;20081;-50
2021/12/17 13:29:23;;;;;;;9.02;2.75;;;;;;;5.69;84.26;103678.59;5058123;28;20052;-53
2021/12/17 13:31:54;;;;;;;9.32;3.25;;;;;;;5.73;84.51;103676.47;5059118;28;20024;-53
2021/12/17 13:34:23;;;;;;;10.88;3.80;;;;;;;5.71;84.78;103681.94;5061512;28;20046;-53
2021/12/17 13:37:02;;;;;;;16.60;3.42;;;;;;;5.74;84.82;103686.13;5062689;28;20028;-53
2021/12/17 13:39:34;;;;;;;9.95;3.05;;;;;;;5.70;84.84;103696.22;5061918;28;20074;-51
2021/12/17 13:42:01;;;;;;;10.35;3.15;;;;;;;5.79;84.84;103686.56;5061538;28;20047;-51
2021/12/17 13:44:32;;;;;;;11.80;3.50;;;;;;;5.71;84.80;103689.91;5063915;28;20028;-51
2021/12/17 13:47:24;;;;;;;13.52;3.65;;;;;;;5.68;84.86;103687.56;5061227;28;20098;-51
2021/12/17 13:49:51;;;;;;;13.65;4.97;;;;;;;5.69;84.80;103691.03;5059411;28;20461;-53
2021/12/17 13:52:20;;;;;;;19.65;4.97;;;;;;;5.71;84.95;103689.91;5058699;28;20028;-52
2021/12/17 13:54:47;;;;;;;16.55;6.20;;;;;;;5.75;84.92;103696.66;5060787;28;20087;-53
2021/12/17 13:57:16;;;;;;;19.88;6.28;;;;;;;5.84;84.71;103704.75;5058672;28;20056;-53
2021/12/17 13:59:43;;;;;;;19.25;6.43;;;;;;;5.73;84.49;103698.59;5062227;28;20090;-54
2021/12/17 14:02:13;;;;;;;16.00;6.40;;;;;;;5.68;84.50;103698.19;5050264;28;20400;-53
2021/12/17 14:04:40;;;;;;;12.55;5.30;;;;;;;5.69;84.53;103699.88;5048264;28;20469;-52
2021/12/17 14:07:11;;;;;;;16.80;4.53;;;;;;;5.62;84.70;103692.63;5060124;28;20467;-53
2021/12/17 14:09:37;;;;;;;10.15;4.45;;;;;;;5.65;84.94;103701.13;5064094;28;20487;-53
2021/12/17 14:12:33;;;;;;;14.90;4.38;;;;;;;5.52;85.04;103713.06;5057679;28;20712;-54
2021/12/17 14:15:06;;;;;;;8.63;3.10;;;;;;;5.58;85.60;103705.38;5047272;28;20471;-53
2021/12/17 14:17:33;;;;;;;9.93;3.78;;;;;;;5.47;85.37;103708.16;5056841;28;20020;-53
2021/12/17 14:20:09;;;;;;;13.70;4.28;;;;;;;5.45;85.51;103721.63;5057421;28;20059;-51
2021/12/17 14:22:37;;;;;;;10.77;4.00;;;;;;;5.48;85.70;103725.81;5056450;28;20028;-53
2021/12/17 14:25:23;;;;;;;12.02;4.13;;;;;;;5.41;85.13;103714.06;5061930;28;20032;-53
2021/12/17 14:27:49;;;;;;;14.98;2.88;;;;;;;5.36;85.87;103713.63;5056005;28;20086;-53
2021/12/17 14:30:15;;;;;;;11.93;3.90;;;;;;;5.48;85.34;103715.16;5058634;28;20077;-51
2021/12/17 14:32:46;;;;;;;12.52;3.92;;;;;;;5.50;85.28;103717.69;5061614;28;20036;-53
2021/12/17 14:35:13;;;;;;;12.00;5.25;;;;;;;5.50;85.22;103712.38;5061960;28;20028;-54
2021/12/17 14:37:56;;;;;;;28.90;8.00;;;;;;;5.37;84.16;103717.97;5059782;28;20424;-53
2021/12/17 14:40:26;;;;;;;16.98;6.07;;;;;;;5.42;nan;103727.22;5054767;28;20037;-53